createdAt,value
2023-01-11T00:01:50.385Z,88.84
2023-01-11T00:06:54.657Z,89.18
2023-01-11T00:12:00.115Z,87.98
2023-01-11T00:17:04.088Z,89.97
2023-01-11T00:22:09.098Z,89.87
2023-01-11T00:27:14.534Z,90.80
2023-01-11T00:32:18.702Z,91.45
2023-01-11T00:37:23.223Z,92.66
2023-01-11T00:42:45.783Z,91.83
2023-01-11T00:47:58.689Z,91.81
2023-01-11T00:53:03.409Z,89.83
2023-01-11T00:58:09.857Z,90.02
2023-01-11T01:03:14.689Z,90.34
2023-01-11T01:08:18.625Z,90.04
2023-01-11T01:13:41.063Z,90.17
2023-01-11T01:18:45.118Z,90.20
2023-01-11T01:23:49.112Z,88.46
2023-01-11T01:28:54.799Z,89.36
2023-01-11T01:33:59.255Z,89.41
2023-01-11T01:39:04.196Z,90.24
2023-01-11T01:44:41.052Z,90.66
2023-01-11T01:49:47.046Z,89.17
2023-01-11T01:54:51.226Z,89.91
2023-01-11T01:59:59.715Z,89.21
2023-01-11T02:05:07.025Z,88.43
2023-01-11T02:10:14.246Z,87.90
2023-01-11T02:15:20.467Z,89.10
2023-01-11T02:20:54.336Z,89.62
2023-01-11T02:26:32.945Z,88.48
2023-01-11T02:31:46.290Z,89.95
2023-01-11T02:37:04.940Z,90.33
2023-01-11T02:42:31.548Z,90.79
2023-01-11T02:47:42.864Z,91.13
2023-01-11T02:52:56.989Z,92.78
2023-01-11T02:58:04.151Z,91.56
2023-01-11T03:03:13.794Z,91.15
2023-01-11T03:08:32.303Z,90.81
2023-01-11T03:13:50.035Z,90.92
2023-01-11T03:19:08.491Z,90.39
2023-01-11T03:24:20.341Z,91.43
2023-01-11T03:29:32.216Z,92.29
2023-01-11T03:34:44.408Z,92.00
2023-01-11T03:39:53.669Z,91.76
2023-01-11T03:44:59.764Z,91.20
2023-01-11T03:50:12.105Z,91.85
2023-01-11T03:55:18.718Z,92.04
2023-01-11T04:00:24.230Z,91.92
2023-01-11T04:05:30.291Z,92.62
2023-01-11T04:10:34.302Z,91.91
2023-01-11T04:15:38.713Z,92.98
2023-01-11T04:20:44.379Z,92.35
2023-01-11T04:25:48.607Z,91.87
2023-01-11T04:30:53.009Z,92.08
2023-01-11T04:35:58.360Z,92.87
2023-01-11T04:41:22.727Z,92.05
2023-01-11T04:46:27.554Z,91.14
2023-01-11T04:51:33.072Z,91.99
2023-01-11T04:56:37.432Z,91.79
2023-01-11T05:01:41.540Z,91.63
2023-01-11T05:06:48.242Z,90.86
2023-01-11T05:11:52.382Z,91.66
2023-01-11T05:16:56.815Z,91.46
2023-01-11T05:22:02.241Z,90.63
2023-01-11T05:27:07.428Z,89.20
2023-01-11T05:32:12.827Z,89.68
2023-01-11T05:37:18.245Z,88.12
2023-01-11T05:42:23.009Z,89.13
2023-01-11T05:47:27.569Z,89.71
2023-01-11T05:52:33.352Z,90.54
2023-01-11T05:57:37.798Z,91.37
2023-01-11T06:02:42.105Z,89.84
2023-01-11T06:07:47.897Z,90.85
2023-01-11T06:13:16.257Z,92.40
2023-01-11T06:18:20.344Z,92.34
2023-01-11T06:23:27.063Z,91.00
2023-01-11T06:28:31.161Z,91.12
2023-01-11T06:33:35.521Z,90.92
2023-01-11T06:38:41.985Z,91.93
2023-01-11T06:43:46.940Z,89.84
2023-01-11T06:48:51.313Z,89.96
2023-01-11T06:53:59.917Z,88.05
2023-01-11T06:59:03.896Z,89.31
2023-01-11T07:04:08.233Z,90.05
2023-01-11T07:09:13.940Z,89.54
2023-01-11T07:14:20.338Z,88.95
2023-01-11T07:19:24.567Z,87.95
2023-01-11T07:24:30.466Z,87.51
2023-01-11T07:29:34.823Z,85.96
2023-01-11T07:34:39.397Z,86.11
2023-01-11T07:39:45.090Z,87.25
2023-01-11T07:44:49.458Z,87.54
2023-01-11T07:49:53.826Z,86.73
2023-01-11T07:55:03.008Z,85.48
2023-01-11T08:00:07.570Z,86.43
2023-01-11T08:05:15.886Z,87.31
2023-01-11T08:10:21.401Z,86.01
2023-01-11T08:15:26.062Z,86.25
2023-01-11T08:20:30.161Z,86.02
2023-01-11T08:25:36.548Z,86.39
2023-01-11T08:30:44.253Z,86.59
2023-01-11T08:35:49.350Z,83.34
2023-01-11T08:40:55.303Z,79.55
2023-01-11T08:46:00.273Z,78.86
2023-01-11T08:51:04.559Z,78.94
2023-01-11T08:56:10.927Z,79.39
2023-01-11T09:01:15.018Z,78.99
2023-01-11T09:06:20.209Z,78.97
2023-01-11T09:11:43.062Z,77.90
2023-01-11T09:16:50.358Z,78.81
2023-01-11T09:21:57.964Z,80.01
2023-01-11T09:27:05.078Z,79.54
2023-01-11T09:32:09.419Z,78.56
2023-01-11T09:37:14.468Z,77.51
2023-01-11T09:42:43.091Z,76.94
2023-01-11T09:47:51.950Z,77.82
2023-01-11T09:53:00.423Z,76.72
2023-01-11T09:58:36.522Z,75.92
2023-01-11T10:04:06.180Z,77.86
2023-01-11T10:18:25.789Z,78.84
2023-01-11T10:20:31.034Z,78.66
2023-01-11T10:25:44.640Z,78.64
2023-01-11T10:31:07.923Z,78.22
2023-01-11T10:36:34.729Z,78.78
2023-01-11T10:41:52.589Z,78.19
2023-01-11T10:47:00.855Z,77.19
2023-01-11T10:52:16.215Z,78.06
2023-01-11T10:57:59.323Z,77.68
2023-01-11T11:03:39.287Z,77.18
2023-01-11T11:08:51.145Z,79.39
2023-01-11T11:14:01.877Z,78.41
2023-01-11T11:19:14.115Z,78.84
2023-01-11T11:24:24.253Z,77.45
2023-01-11T11:29:30.831Z,76.73
2023-01-11T11:34:37.731Z,78.60
2023-01-11T11:39:42.346Z,79.71
2023-01-11T11:44:46.440Z,79.70
2023-01-11T11:49:52.191Z,78.80
2023-01-11T11:54:59.240Z,77.96
2023-01-11T12:00:07.442Z,78.18
2023-01-11T12:05:13.937Z,77.78
2023-01-11T12:10:21.401Z,79.48
2023-01-11T12:15:27.422Z,78.74
2023-01-11T12:20:39.056Z,79.04
2023-01-11T12:26:03.333Z,79.30
2023-01-11T12:31:14.928Z,78.14
2023-01-11T12:36:32.757Z,78.08
2023-01-11T12:42:00.446Z,76.32
2023-01-11T12:47:39.401Z,75.63
2023-01-11T12:53:00.403Z,78.93
2023-01-11T12:58:09.308Z,78.40
2023-01-11T13:03:35.591Z,77.59
2023-01-11T13:08:56.919Z,74.59
2023-01-11T13:14:22.946Z,72.68
2023-01-11T13:19:34.104Z,69.42
2023-01-11T13:24:41.928Z,69.19
2023-01-11T13:29:49.735Z,71.01
2023-01-11T13:35:00.220Z,72.22
2023-01-11T13:40:16.835Z,73.11
2023-01-11T13:45:26.093Z,74.53
2023-01-11T13:50:33.630Z,75.19
2023-01-11T13:55:46.461Z,75.27
2023-01-11T14:00:57.154Z,76.60
2023-01-11T14:06:20.814Z,75.79
2023-01-11T14:11:38.277Z,77.66
2023-01-11T14:17:00.877Z,78.96
2023-01-11T14:22:15.724Z,79.03
2023-01-11T14:27:45.755Z,80.61
2023-01-11T14:33:23.668Z,79.62
2023-01-11T14:38:47.919Z,79.51
2023-01-11T14:44:19.730Z,78.13
2023-01-11T14:49:41.762Z,78.61
2023-01-11T14:54:49.941Z,78.81
2023-01-11T14:59:55.545Z,79.25
2023-01-11T15:05:11.429Z,81.53
2023-01-11T15:10:42.019Z,81.34
2023-01-11T15:16:05.438Z,83.33
2023-01-11T15:21:19.228Z,84.68
2023-01-11T15:26:26.753Z,84.27
2023-01-11T15:32:04.153Z,85.87
2023-01-11T15:37:36.924Z,84.61
2023-01-11T15:43:10.275Z,84.78
2023-01-11T15:48:36.886Z,85.93
2023-01-11T15:54:12.773Z,85.04
2023-01-11T15:59:57.509Z,85.27
2023-01-11T16:05:17.671Z,87.79
2023-01-11T16:10:53.937Z,88.19
2023-01-11T16:16:07.926Z,87.48
2023-01-11T16:21:22.311Z,86.44
2023-01-11T16:26:27.202Z,87.31
2023-01-11T16:31:55.005Z,85.91
2023-01-11T16:37:02.953Z,87.03
2023-01-11T16:42:11.224Z,88.26
2023-01-11T16:47:19.404Z,89.79
2023-01-11T16:52:55.200Z,90.00
2023-01-11T16:58:01.552Z,89.18
2023-01-11T17:03:31.124Z,91.14
2023-01-11T17:08:40.757Z,90.83
2023-01-11T17:14:24.321Z,89.81
2023-01-11T17:19:32.543Z,89.47
2023-01-11T17:24:42.918Z,90.46
2023-01-11T17:29:48.403Z,89.39
2023-01-11T17:34:54.013Z,88.33
2023-01-11T17:40:00.456Z,90.70
2023-01-11T17:45:20.623Z,89.71
2023-01-11T17:50:31.444Z,91.47
2023-01-11T17:55:37.200Z,92.74
2023-01-11T18:00:43.685Z,91.61
2023-01-11T18:05:51.576Z,90.63
2023-01-11T18:10:58.422Z,92.24
2023-01-11T18:16:03.947Z,93.10
2023-01-11T18:21:42.257Z,92.03
2023-01-11T18:26:50.452Z,92.10
2023-01-11T18:31:57.668Z,93.58
2023-01-11T18:37:03.251Z,93.33
2023-01-11T18:42:09.536Z,95.00
2023-01-11T18:47:19.884Z,93.52
2023-01-11T18:52:28.298Z,93.67
2023-01-11T18:57:37.799Z,93.95
2023-01-11T19:02:44.377Z,93.04
2023-01-11T19:07:48.748Z,92.62
2023-01-11T19:12:55.349Z,92.96
2023-01-11T19:23:10.144Z,91.22
2023-01-11T19:28:15.781Z,92.44
2023-01-11T19:33:20.968Z,91.97
2023-01-11T19:38:25.614Z,92.86
2023-01-11T19:43:32.146Z,93.78
2023-01-11T19:48:36.240Z,92.70
2023-01-11T19:53:41.256Z,93.29
2023-01-11T19:58:47.820Z,93.19
2023-01-11T20:03:54.304Z,91.86
2023-01-11T20:08:58.492Z,92.38
2023-01-11T20:14:06.687Z,93.80
2023-01-11T20:19:12.797Z,94.23
2023-01-11T20:24:18.129Z,94.62
2023-01-11T20:29:24.345Z,94.36
2023-01-11T20:34:29.011Z,94.52
2023-01-11T20:39:33.167Z,94.36
2023-01-11T20:44:42.753Z,93.70
2023-01-11T20:49:47.269Z,93.28
2023-01-11T20:54:51.690Z,93.17
2023-01-11T20:59:57.807Z,92.78
2023-01-11T21:05:05.523Z,91.76
2023-01-11T21:10:11.221Z,92.63
2023-01-11T21:15:18.111Z,92.32
2023-01-11T21:20:22.466Z,91.29
2023-01-11T21:25:26.777Z,90.86
2023-01-11T21:30:33.530Z,89.36
2023-01-11T21:35:37.659Z,88.53
2023-01-11T21:40:41.687Z,89.29
2023-01-11T21:45:55.754Z,90.04
2023-01-11T21:51:00.688Z,89.70
2023-01-11T21:56:08.120Z,88.20
2023-01-11T22:01:15.352Z,88.85
2023-01-11T22:06:19.726Z,87.94
2023-01-11T22:11:23.829Z,86.89
2023-01-11T22:16:30.081Z,88.28
2023-01-11T22:21:35.738Z,89.64
2023-01-11T22:26:39.945Z,88.96
2023-01-11T22:31:49.085Z,91.38
2023-01-11T22:36:54.518Z,92.63
2023-01-11T22:41:59.368Z,93.37
2023-01-11T22:47:05.252Z,93.80
2023-01-11T22:52:10.328Z,92.42
2023-01-11T22:57:14.772Z,91.38
2023-01-11T23:02:20.226Z,92.79
2023-01-11T23:07:24.639Z,92.49
2023-01-11T23:12:46.395Z,92.90
2023-01-11T23:17:51.727Z,93.20
2023-01-11T23:22:55.618Z,94.45
2023-01-11T23:28:00.023Z,95.55
2023-01-11T23:33:05.489Z,94.41
2023-01-11T23:38:09.443Z,94.50
2023-01-11T23:43:13.378Z,94.38
2023-01-11T23:48:19.097Z,91.03
2023-01-11T23:53:23.275Z,92.47
2023-01-11T23:58:27.338Z,92.42
